sensor_id;sensor_type;location;lat;lon;timestamp;P1;durP1;ratioP1;P2;durP2;ratioP2
727;SDS011;347;48.780;9.158;2022-08-01T00:00:11;12.80;;;12.40;;
727;SDS011;347;48.780;9.158;2022-08-01T00:02:37;13.10;;;12.60;;
727;SDS011;347;48.780;9.158;2022-08-01T00:05:03;13.70;;;13.20;;
727;SDS011;347;48.780;9.158;2022-08-01T00:07:33;13.20;;;12.70;;
727;SDS011;347;48.780;9.158;2022-08-01T00:09:59;12.73;;;12.23;;
727;SDS011;347;48.780;9.158;2022-08-01T00:12:25;13.20;;;12.70;;
727;SDS011;347;48.780;9.158;2022-08-01T00:14:51;13.40;;;12.77;;
727;SDS011;347;48.780;9.158;2022-08-01T00:17:16;13.47;;;12.87;;
727;SDS011;347;48.780;9.158;2022-08-01T00:19:42;12.23;;;11.73;;
727;SDS011;347;48.780;9.158;2022-08-01T00:22:08;13.07;;;12.40;;
727;SDS011;347;48.780;9.158;2022-08-01T00:24:33;13.10;;;12.57;;
727;SDS011;347;48.780;9.158;2022-08-01T00:26:59;13.37;;;12.77;;
727;SDS011;347;48.780;9.158;2022-08-01T00:29:24;12.50;;;12.00;;
727;SDS011;347;48.780;9.158;2022-08-01T00:31:50;12.73;;;12.13;;
727;SDS011;347;48.780;9.158;2022-08-01T00:34:15;13.20;;;12.50;;
727;SDS011;347;48.780;9.158;2022-08-01T00:36:41;12.80;;;12.33;;
727;SDS011;347;48.780;9.158;2022-08-01T00:39:06;13.40;;;12.90;;
727;SDS011;347;48.780;9.158;2022-08-01T00:41:32;12.70;;;12.20;;
727;SDS011;347;48.780;9.158;2022-08-01T00:43:58;13.90;;;13.30;;
727;SDS011;347;48.780;9.158;2022-08-01T00:46:26;13.70;;;13.10;;
727;SDS011;347;48.780;9.158;2022-08-01T00:48:52;13.23;;;12.70;;
727;SDS011;347;48.780;9.158;2022-08-01T00:51:18;13.60;;;13.00;;
727;SDS011;347;48.780;9.158;2022-08-01T00:53:44;13.43;;;12.87;;
727;SDS011;347;48.780;9.158;2022-08-01T00:56:09;16.03;;;15.00;;
727;SDS011;347;48.780;9.158;2022-08-01T00:58:36;13.43;;;12.80;;
727;SDS011;347;48.780;9.158;2022-08-01T01:01:02;13.47;;;12.90;;
727;SDS011;347;48.780;9.158;2022-08-01T01:03:27;12.70;;;12.20;;
727;SDS011;347;48.780;9.158;2022-08-01T01:08:58;14.03;;;13.43;;
727;SDS011;347;48.780;9.158;2022-08-01T01:11:43;13.30;;;12.80;;
727;SDS011;347;48.780;9.158;2022-08-01T01:14:16;13.43;;;12.93;;
727;SDS011;347;48.780;9.158;2022-08-01T01:17:04;13.00;;;12.50;;
727;SDS011;347;48.780;9.158;2022-08-01T01:19:33;13.97;;;13.47;;
727;SDS011;347;48.780;9.158;2022-08-01T01:25:10;13.90;;;13.40;;
727;SDS011;347;48.780;9.158;2022-08-01T01:28:23;13.43;;;12.93;;
727;SDS011;347;48.780;9.158;2022-08-01T01:30:56;14.10;;;13.40;;
727;SDS011;347;48.780;9.158;2022-08-01T01:33:23;13.63;;;13.10;;
727;SDS011;347;48.780;9.158;2022-08-01T01:35:55;13.90;;;13.20;;
727;SDS011;347;48.780;9.158;2022-08-01T01:38:29;13.80;;;13.20;;
727;SDS011;347;48.780;9.158;2022-08-01T01:40:59;13.50;;;13.00;;
727;SDS011;347;48.780;9.158;2022-08-01T01:43:27;14.00;;;13.40;;
727;SDS011;347;48.780;9.158;2022-08-01T01:45:55;14.30;;;13.70;;
727;SDS011;347;48.780;9.158;2022-08-01T01:48:24;13.87;;;13.27;;
727;SDS011;347;48.780;9.158;2022-08-01T01:50:51;13.90;;;13.40;;
727;SDS011;347;48.780;9.158;2022-08-01T01:53:19;15.57;;;14.87;;
727;SDS011;347;48.780;9.158;2022-08-01T01:55:47;13.33;;;12.83;;
727;SDS011;347;48.780;9.158;2022-08-01T01:58:16;14.10;;;13.50;;
727;SDS011;347;48.780;9.158;2022-08-01T02:00:44;13.97;;;13.27;;
727;SDS011;347;48.780;9.158;2022-08-01T02:03:12;13.57;;;13.07;;
727;SDS011;347;48.780;9.158;2022-08-01T02:05:40;14.30;;;13.80;;
727;SDS011;347;48.780;9.158;2022-08-01T02:08:10;15.00;;;14.40;;
727;SDS011;347;48.780;9.158;2022-08-01T02:10:39;15.77;;;14.97;;
727;SDS011;347;48.780;9.158;2022-08-01T02:13:05;13.83;;;13.33;;
727;SDS011;347;48.780;9.158;2022-08-01T02:15:32;14.37;;;13.87;;
727;SDS011;347;48.780;9.158;2022-08-01T02:18:03;13.90;;;13.40;;
727;SDS011;347;48.780;9.158;2022-08-01T02:20:30;14.63;;;14.03;;
727;SDS011;347;48.780;9.158;2022-08-01T02:23:11;14.07;;;13.37;;
727;SDS011;347;48.780;9.158;2022-08-01T02:25:50;14.20;;;13.60;;
727;SDS011;347;48.780;9.158;2022-08-01T02:28:23;14.43;;;13.87;;
727;SDS011;347;48.780;9.158;2022-08-01T02:30:54;14.57;;;13.97;;
727;SDS011;347;48.780;9.158;2022-08-01T02:33:27;15.20;;;14.70;;
727;SDS011;347;48.780;9.158;2022-08-01T02:36:03;15.80;;;15.10;;
727;SDS011;347;48.780;9.158;2022-08-01T02:38:31;15.87;;;15.27;;
727;SDS011;347;48.780;9.158;2022-08-01T02:41:01;14.80;;;14.10;;
727;SDS011;347;48.780;9.158;2022-08-01T02:43:38;14.70;;;14.10;;
727;SDS011;347;48.780;9.158;2022-08-01T02:46:27;14.50;;;13.90;;
727;SDS011;347;48.780;9.158;2022-08-01T02:49:04;14.40;;;13.83;;
727;SDS011;347;48.780;9.158;2022-08-01T02:51:36;14.90;;;14.30;;
727;SDS011;347;48.780;9.158;2022-08-01T02:54:04;14.53;;;14.00;;
727;SDS011;347;48.780;9.158;2022-08-01T02:56:33;14.63;;;14.13;;
727;SDS011;347;48.780;9.158;2022-08-01T02:59:07;14.80;;;14.20;;
727;SDS011;347;48.780;9.158;2022-08-01T03:01:37;14.67;;;14.17;;
727;SDS011;347;48.780;9.158;2022-08-01T03:04:04;16.07;;;15.47;;
727;SDS011;347;48.780;9.158;2022-08-01T03:06:33;15.57;;;14.97;;
727;SDS011;347;48.780;9.158;2022-08-01T03:09:00;15.50;;;14.90;;
727;SDS011;347;48.780;9.158;2022-08-01T03:11:28;15.37;;;14.77;;
727;SDS011;347;48.780;9.158;2022-08-01T03:14:08;15.30;;;14.70;;
727;SDS011;347;48.780;9.158;2022-08-01T03:17:15;15.73;;;15.13;;
727;SDS011;347;48.780;9.158;2022-08-01T03:19:44;14.73;;;14.23;;
727;SDS011;347;48.780;9.158;2022-08-01T03:22:23;15.23;;;14.57;;
727;SDS011;347;48.780;9.158;2022-08-01T03:24:53;16.10;;;15.50;;
727;SDS011;347;48.780;9.158;2022-08-01T03:27:21;15.50;;;14.90;;
727;SDS011;347;48.780;9.158;2022-08-01T03:29:49;15.57;;;14.97;;
727;SDS011;347;48.780;9.158;2022-08-01T03:32:30;15.70;;;15.10;;
727;SDS011;347;48.780;9.158;2022-08-01T03:34:56;15.77;;;15.23;;
727;SDS011;347;48.780;9.158;2022-08-01T03:37:26;15.93;;;15.33;;
727;SDS011;347;48.780;9.158;2022-08-01T03:39:58;15.87;;;15.20;;
727;SDS011;347;48.780;9.158;2022-08-01T03:42:33;15.97;;;15.37;;
727;SDS011;347;48.780;9.158;2022-08-01T03:45:08;17.03;;;16.33;;
727;SDS011;347;48.780;9.158;2022-08-01T03:47:42;16.97;;;16.37;;
727;SDS011;347;48.780;9.158;2022-08-01T03:50:09;16.23;;;15.30;;
727;SDS011;347;48.780;9.158;2022-08-01T03:52:36;18.00;;;17.30;;
727;SDS011;347;48.780;9.158;2022-08-01T03:55:05;17.13;;;16.43;;
727;SDS011;347;48.780;9.158;2022-08-01T03:57:34;16.00;;;15.40;;
727;SDS011;347;48.780;9.158;2022-08-01T04:00:01;15.40;;;14.80;;
727;SDS011;347;48.780;9.158;2022-08-01T04:02:30;18.57;;;17.17;;
727;SDS011;347;48.780;9.158;2022-08-01T04:04:56;15.73;;;15.10;;
727;SDS011;347;48.780;9.158;2022-08-01T04:07:24;16.70;;;15.77;;
727;SDS011;347;48.780;9.158;2022-08-01T04:09:51;16.17;;;15.47;;
727;SDS011;347;48.780;9.158;2022-08-01T04:12:17;16.13;;;15.50;;
727;SDS011;347;48.780;9.158;2022-08-01T04:14:43;17.60;;;16.70;;
727;SDS011;347;48.780;9.158;2022-08-01T04:17:09;17.60;;;16.90;;
727;SDS011;347;48.780;9.158;2022-08-01T04:19:35;17.43;;;16.73;;
727;SDS011;347;48.780;9.158;2022-08-01T04:22:00;17.77;;;17.17;;
727;SDS011;347;48.780;9.158;2022-08-01T04:24:27;17.90;;;17.20;;
727;SDS011;347;48.780;9.158;2022-08-01T04:26:55;17.73;;;17.03;;
727;SDS011;347;48.780;9.158;2022-08-01T04:29:24;17.37;;;16.60;;
727;SDS011;347;48.780;9.158;2022-08-01T04:31:52;15.27;;;14.57;;
727;SDS011;347;48.780;9.158;2022-08-01T04:34:20;16.27;;;15.50;;
727;SDS011;347;48.780;9.158;2022-08-01T04:36:48;16.53;;;15.93;;
727;SDS011;347;48.780;9.158;2022-08-01T04:39:16;17.03;;;16.17;;
727;SDS011;347;48.780;9.158;2022-08-01T04:41:45;16.93;;;16.23;;
727;SDS011;347;48.780;9.158;2022-08-01T04:44:12;18.10;;;16.87;;
727;SDS011;347;48.780;9.158;2022-08-01T04:46:38;16.37;;;15.77;;
727;SDS011;347;48.780;9.158;2022-08-01T04:49:06;17.23;;;16.53;;
727;SDS011;347;48.780;9.158;2022-08-01T04:51:34;17.30;;;16.50;;
727;SDS011;347;48.780;9.158;2022-08-01T04:54:02;18.57;;;17.63;;
727;SDS011;347;48.780;9.158;2022-08-01T04:56:27;17.70;;;17.00;;
727;SDS011;347;48.780;9.158;2022-08-01T04:58:53;17.30;;;16.67;;
727;SDS011;347;48.780;9.158;2022-08-01T05:01:37;16.97;;;16.33;;
727;SDS011;347;48.780;9.158;2022-08-01T05:04:03;16.63;;;16.03;;
727;SDS011;347;48.780;9.158;2022-08-01T05:06:31;16.80;;;16.10;;
727;SDS011;347;48.780;9.158;2022-08-01T05:08:56;17.10;;;16.30;;
727;SDS011;347;48.780;9.158;2022-08-01T05:11:22;17.00;;;16.30;;
727;SDS011;347;48.780;9.158;2022-08-01T05:13:48;15.80;;;15.10;;
727;SDS011;347;48.780;9.158;2022-08-01T05:16:13;16.30;;;15.70;;
727;SDS011;347;48.780;9.158;2022-08-01T05:18:39;16.80;;;16.13;;
727;SDS011;347;48.780;9.158;2022-08-01T05:21:04;17.60;;;16.50;;
727;SDS011;347;48.780;9.158;2022-08-01T05:23:30;17.03;;;16.33;;
727;SDS011;347;48.780;9.158;2022-08-01T05:25:56;16.23;;;15.63;;
727;SDS011;347;48.780;9.158;2022-08-01T05:28:21;16.80;;;16.20;;
727;SDS011;347;48.780;9.158;2022-08-01T05:30:47;18.37;;;17.67;;
727;SDS011;347;48.780;9.158;2022-08-01T05:33:12;17.73;;;17.03;;
727;SDS011;347;48.780;9.158;2022-08-01T05:35:38;17.87;;;17.17;;
727;SDS011;347;48.780;9.158;2022-08-01T05:38:03;18.03;;;17.20;;
727;SDS011;347;48.780;9.158;2022-08-01T05:40:29;17.40;;;16.70;;
727;SDS011;347;48.780;9.158;2022-08-01T05:42:54;16.00;;;15.40;;
727;SDS011;347;48.780;9.158;2022-08-01T05:45:20;16.70;;;16.00;;
727;SDS011;347;48.780;9.158;2022-08-01T05:47:46;15.40;;;14.90;;
727;SDS011;347;48.780;9.158;2022-08-01T05:50:11;17.10;;;16.40;;
727;SDS011;347;48.780;9.158;2022-08-01T05:52:37;16.63;;;15.80;;
727;SDS011;347;48.780;9.158;2022-08-01T05:55:03;15.43;;;14.83;;
727;SDS011;347;48.780;9.158;2022-08-01T05:57:29;16.73;;;16.03;;
727;SDS011;347;48.780;9.158;2022-08-01T05:59:55;16.07;;;15.40;;
727;SDS011;347;48.780;9.158;2022-08-01T06:02:20;17.73;;;16.70;;
727;SDS011;347;48.780;9.158;2022-08-01T06:04:46;16.40;;;15.80;;
727;SDS011;347;48.780;9.158;2022-08-01T06:07:12;16.30;;;15.80;;
727;SDS011;347;48.780;9.158;2022-08-01T06:09:38;17.23;;;16.63;;
727;SDS011;347;48.780;9.158;2022-08-01T06:12:06;18.47;;;17.67;;
727;SDS011;347;48.780;9.158;2022-08-01T06:14:32;18.00;;;17.20;;
727;SDS011;347;48.780;9.158;2022-08-01T06:16:58;18.27;;;17.37;;
727;SDS011;347;48.780;9.158;2022-08-01T06:19:24;17.83;;;17.13;;
727;SDS011;347;48.780;9.158;2022-08-01T06:21:51;17.13;;;16.50;;
727;SDS011;347;48.780;9.158;2022-08-01T06:24:16;15.87;;;15.33;;
727;SDS011;347;48.780;9.158;2022-08-01T06:27:02;15.83;;;15.13;;
727;SDS011;347;48.780;9.158;2022-08-01T06:29:29;16.50;;;15.80;;
727;SDS011;347;48.780;9.158;2022-08-01T06:31:59;15.70;;;15.10;;
727;SDS011;347;48.780;9.158;2022-08-01T06:34:27;16.83;;;16.23;;
727;SDS011;347;48.780;9.158;2022-08-01T15:10:22;14.33;;;13.67;;
727;SDS011;347;48.780;9.158;2022-08-01T16:59:26;12.50;;;12.10;;
727;SDS011;347;48.780;9.158;2022-08-01T17:01:51;11.90;;;11.40;;
727;SDS011;347;48.780;9.158;2022-08-01T17:04:17;12.43;;;12.03;;
727;SDS011;347;48.780;9.158;2022-08-01T17:06:43;11.80;;;11.30;;
727;SDS011;347;48.780;9.158;2022-08-01T17:09:10;12.00;;;11.50;;
727;SDS011;347;48.780;9.158;2022-08-01T17:11:36;12.37;;;11.83;;
727;SDS011;347;48.780;9.158;2022-08-01T17:14:02;12.40;;;12.00;;
727;SDS011;347;48.780;9.158;2022-08-01T17:16:28;12.00;;;11.60;;
727;SDS011;347;48.780;9.158;2022-08-01T17:18:55;12.47;;;12.07;;
727;SDS011;347;48.780;9.158;2022-08-01T17:21:21;13.83;;;12.60;;
727;SDS011;347;48.780;9.158;2022-08-01T17:23:47;12.10;;;11.70;;
727;SDS011;347;48.780;9.158;2022-08-01T17:26:13;12.70;;;12.17;;
727;SDS011;347;48.780;9.158;2022-08-01T17:28:38;11.70;;;11.30;;
727;SDS011;347;48.780;9.158;2022-08-01T17:31:04;12.37;;;11.70;;
727;SDS011;347;48.780;9.158;2022-08-01T17:33:30;12.27;;;11.87;;
727;SDS011;347;48.780;9.158;2022-08-01T17:35:55;12.30;;;11.90;;
727;SDS011;347;48.780;9.158;2022-08-01T17:38:21;13.40;;;12.90;;
727;SDS011;347;48.780;9.158;2022-08-01T17:40:46;13.43;;;13.03;;
727;SDS011;347;48.780;9.158;2022-08-01T17:43:12;13.00;;;12.60;;
727;SDS011;347;48.780;9.158;2022-08-01T17:45:39;12.87;;;12.47;;
727;SDS011;347;48.780;9.158;2022-08-01T17:48:07;13.27;;;12.77;;
727;SDS011;347;48.780;9.158;2022-08-01T17:50:40;11.97;;;11.57;;
727;SDS011;347;48.780;9.158;2022-08-01T17:53:09;11.70;;;11.30;;
727;SDS011;347;48.780;9.158;2022-08-01T17:55:35;11.80;;;11.40;;
727;SDS011;347;48.780;9.158;2022-08-01T17:58:02;12.00;;;11.60;;
727;SDS011;347;48.780;9.158;2022-08-01T18:00:29;12.47;;;12.07;;
727;SDS011;347;48.780;9.158;2022-08-01T18:02:55;13.73;;;12.70;;
727;SDS011;347;48.780;9.158;2022-08-01T18:05:20;13.20;;;12.70;;
727;SDS011;347;48.780;9.158;2022-08-01T18:07:46;13.97;;;13.47;;
727;SDS011;347;48.780;9.158;2022-08-01T18:10:11;13.10;;;12.60;;
727;SDS011;347;48.780;9.158;2022-08-01T18:12:37;13.37;;;12.87;;
727;SDS011;347;48.780;9.158;2022-08-01T18:15:03;13.77;;;13.27;;
727;SDS011;347;48.780;9.158;2022-08-01T18:17:30;14.50;;;13.70;;
727;SDS011;347;48.780;9.158;2022-08-01T18:19:56;13.03;;;12.57;;
727;SDS011;347;48.780;9.158;2022-08-01T18:22:22;13.20;;;12.70;;
727;SDS011;347;48.780;9.158;2022-08-01T18:24:47;13.57;;;13.07;;
727;SDS011;347;48.780;9.158;2022-08-01T18:27:13;12.87;;;12.47;;
727;SDS011;347;48.780;9.158;2022-08-01T18:29:39;12.80;;;12.40;;
727;SDS011;347;48.780;9.158;2022-08-01T18:32:04;12.93;;;12.53;;
727;SDS011;347;48.780;9.158;2022-08-01T18:34:30;12.60;;;12.20;;
727;SDS011;347;48.780;9.158;2022-08-01T18:36:56;12.63;;;12.23;;
727;SDS011;347;48.780;9.158;2022-08-01T18:39:22;13.30;;;12.80;;
727;SDS011;347;48.780;9.158;2022-08-01T18:41:48;13.17;;;12.57;;
727;SDS011;347;48.780;9.158;2022-08-01T18:44:13;13.63;;;13.03;;
727;SDS011;347;48.780;9.158;2022-08-01T18:46:40;13.50;;;12.63;;
727;SDS011;347;48.780;9.158;2022-08-01T18:49:07;13.23;;;12.83;;
727;SDS011;347;48.780;9.158;2022-08-01T18:51:34;13.20;;;12.80;;
727;SDS011;347;48.780;9.158;2022-08-01T18:54:00;12.60;;;12.20;;
727;SDS011;347;48.780;9.158;2022-08-01T18:56:25;13.23;;;12.70;;
727;SDS011;347;48.780;9.158;2022-08-01T18:58:51;13.70;;;13.10;;
727;SDS011;347;48.780;9.158;2022-08-01T19:01:18;12.73;;;12.33;;
727;SDS011;347;48.780;9.158;2022-08-01T19:03:44;12.67;;;12.27;;
727;SDS011;347;48.780;9.158;2022-08-01T19:06:10;12.97;;;12.57;;
727;SDS011;347;48.780;9.158;2022-08-01T19:08:36;12.77;;;12.37;;
727;SDS011;347;48.780;9.158;2022-08-01T19:11:02;14.13;;;13.37;;
727;SDS011;347;48.780;9.158;2022-08-01T19:13:28;13.70;;;13.20;;
727;SDS011;347;48.780;9.158;2022-08-01T19:15:55;13.27;;;12.77;;
727;SDS011;347;48.780;9.158;2022-08-01T19:18:22;13.43;;;12.83;;
727;SDS011;347;48.780;9.158;2022-08-01T19:20:49;13.93;;;13.40;;
727;SDS011;347;48.780;9.158;2022-08-01T19:23:14;14.30;;;13.43;;
727;SDS011;347;48.780;9.158;2022-08-01T19:25:59;13.00;;;12.60;;
727;SDS011;347;48.780;9.158;2022-08-01T19:28:28;13.40;;;13.00;;
727;SDS011;347;48.780;9.158;2022-08-01T19:31:02;13.30;;;12.80;;
727;SDS011;347;48.780;9.158;2022-08-01T19:33:29;12.87;;;12.47;;
727;SDS011;347;48.780;9.158;2022-08-01T19:35:57;12.77;;;12.27;;
727;SDS011;347;48.780;9.158;2022-08-01T19:38:24;12.40;;;12.00;;
727;SDS011;347;48.780;9.158;2022-08-01T19:40:51;12.23;;;11.87;;
727;SDS011;347;48.780;9.158;2022-08-01T19:43:17;13.43;;;12.83;;
727;SDS011;347;48.780;9.158;2022-08-01T19:45:48;13.40;;;12.90;;
727;SDS011;347;48.780;9.158;2022-08-01T19:48:14;14.20;;;13.50;;
727;SDS011;347;48.780;9.158;2022-08-01T19:50:40;13.93;;;13.43;;
727;SDS011;347;48.780;9.158;2022-08-01T19:53:07;12.93;;;12.53;;
727;SDS011;347;48.780;9.158;2022-08-01T19:55:38;13.83;;;13.33;;
727;SDS011;347;48.780;9.158;2022-08-01T19:58:06;14.37;;;13.77;;
727;SDS011;347;48.780;9.158;2022-08-01T20:00:35;14.37;;;13.77;;
727;SDS011;347;48.780;9.158;2022-08-01T20:03:02;14.77;;;13.97;;
727;SDS011;347;48.780;9.158;2022-08-01T20:05:28;14.90;;;14.30;;
727;SDS011;347;48.780;9.158;2022-08-01T20:07:54;14.60;;;14.10;;
727;SDS011;347;48.780;9.158;2022-08-01T20:10:20;14.33;;;13.80;;
727;SDS011;347;48.780;9.158;2022-08-01T20:12:46;14.90;;;14.40;;
727;SDS011;347;48.780;9.158;2022-08-01T20:15:12;16.57;;;15.87;;
727;SDS011;347;48.780;9.158;2022-08-01T20:17:39;16.10;;;15.40;;
727;SDS011;347;48.780;9.158;2022-08-01T20:20:05;17.03;;;16.33;;
727;SDS011;347;48.780;9.158;2022-08-01T20:22:32;17.70;;;16.90;;
727;SDS011;347;48.780;9.158;2022-08-01T20:24:59;17.90;;;17.20;;
727;SDS011;347;48.780;9.158;2022-08-01T20:27:27;18.13;;;17.43;;
727;SDS011;347;48.780;9.158;2022-08-01T20:29:57;17.63;;;16.93;;
727;SDS011;347;48.780;9.158;2022-08-01T20:32:28;18.23;;;17.23;;
727;SDS011;347;48.780;9.158;2022-08-01T20:34:57;17.73;;;17.00;;
727;SDS011;347;48.780;9.158;2022-08-01T20:37:25;18.47;;;17.77;;
727;SDS011;347;48.780;9.158;2022-08-01T20:39:51;18.10;;;17.33;;
727;SDS011;347;48.780;9.158;2022-08-01T20:42:22;17.80;;;17.10;;
727;SDS011;347;48.780;9.158;2022-08-01T20:44:48;17.13;;;16.43;;
727;SDS011;347;48.780;9.158;2022-08-01T20:47:16;16.33;;;15.73;;
727;SDS011;347;48.780;9.158;2022-08-01T20:49:41;16.70;;;16.10;;
727;SDS011;347;48.780;9.158;2022-08-01T20:52:08;18.40;;;17.20;;
727;SDS011;347;48.780;9.158;2022-08-01T20:54:33;17.23;;;16.50;;
727;SDS011;347;48.780;9.158;2022-08-01T20:57:00;18.40;;;17.70;;
727;SDS011;347;48.780;9.158;2022-08-01T21:02:07;17.73;;;16.73;;
727;SDS011;347;48.780;9.158;2022-08-01T21:04:51;16.67;;;16.03;;
727;SDS011;347;48.780;9.158;2022-08-01T21:07:27;17.47;;;16.40;;
727;SDS011;347;48.780;9.158;2022-08-01T21:10:13;18.37;;;17.57;;
727;SDS011;347;48.780;9.158;2022-08-01T21:12:45;18.27;;;17.47;;
727;SDS011;347;48.780;9.158;2022-08-01T21:18:13;18.93;;;18.07;;
727;SDS011;347;48.780;9.158;2022-08-01T21:20:58;17.93;;;17.20;;
727;SDS011;347;48.780;9.158;2022-08-01T21:26:10;16.80;;;16.10;;
727;SDS011;347;48.780;9.158;2022-08-01T21:28:37;17.50;;;16.80;;
727;SDS011;347;48.780;9.158;2022-08-01T21:31:05;17.47;;;16.83;;
727;SDS011;347;48.780;9.158;2022-08-01T21:33:32;18.37;;;17.50;;
727;SDS011;347;48.780;9.158;2022-08-01T21:35:58;17.03;;;16.43;;
727;SDS011;347;48.780;9.158;2022-08-01T21:38:25;17.77;;;16.97;;
727;SDS011;347;48.780;9.158;2022-08-01T21:40:51;18.20;;;17.50;;
727;SDS011;347;48.780;9.158;2022-08-01T21:43:19;18.07;;;17.27;;
727;SDS011;347;48.780;9.158;2022-08-01T21:45:46;17.87;;;17.27;;
727;SDS011;347;48.780;9.158;2022-08-01T21:48:13;18.13;;;17.43;;
727;SDS011;347;48.780;9.158;2022-08-01T21:53:28;18.10;;;17.50;;
727;SDS011;347;48.780;9.158;2022-08-01T22:04:36;18.73;;;17.93;;
727;SDS011;347;48.780;9.158;2022-08-01T22:07:07;18.90;;;18.20;;
727;SDS011;347;48.780;9.158;2022-08-01T22:09:40;19.23;;;18.50;;
727;SDS011;347;48.780;9.158;2022-08-01T22:12:09;18.93;;;18.23;;
727;SDS011;347;48.780;9.158;2022-08-01T22:14:41;18.37;;;17.70;;
727;SDS011;347;48.780;9.158;2022-08-01T22:17:13;18.70;;;18.00;;
727;SDS011;347;48.780;9.158;2022-08-01T22:19:43;19.67;;;18.77;;
727;SDS011;347;48.780;9.158;2022-08-01T22:22:10;19.40;;;18.60;;
727;SDS011;347;48.780;9.158;2022-08-01T22:24:36;19.80;;;18.90;;
727;SDS011;347;48.780;9.158;2022-08-01T22:27:02;18.97;;;18.27;;
727;SDS011;347;48.780;9.158;2022-08-01T22:29:30;18.40;;;17.70;;
727;SDS011;347;48.780;9.158;2022-08-01T22:31:57;18.20;;;17.60;;
727;SDS011;347;48.780;9.158;2022-08-01T22:34:23;18.13;;;17.43;;
727;SDS011;347;48.780;9.158;2022-08-01T22:36:52;18.20;;;17.50;;
727;SDS011;347;48.780;9.158;2022-08-01T22:39:17;18.83;;;18.13;;
727;SDS011;347;48.780;9.158;2022-08-01T22:41:46;18.30;;;17.70;;
727;SDS011;347;48.780;9.158;2022-08-01T22:44:14;19.20;;;18.13;;
727;SDS011;347;48.780;9.158;2022-08-01T22:46:51;18.97;;;18.07;;
727;SDS011;347;48.780;9.158;2022-08-01T22:49:34;18.20;;;17.50;;
727;SDS011;347;48.780;9.158;2022-08-01T22:52:19;18.57;;;17.87;;
727;SDS011;347;48.780;9.158;2022-08-01T22:54:56;19.00;;;18.30;;
727;SDS011;347;48.780;9.158;2022-08-01T22:57:30;18.20;;;17.60;;
727;SDS011;347;48.780;9.158;2022-08-01T23:00:05;18.40;;;17.70;;
727;SDS011;347;48.780;9.158;2022-08-01T23:02:35;18.87;;;18.07;;
727;SDS011;347;48.780;9.158;2022-08-01T23:05:05;17.73;;;17.13;;
727;SDS011;347;48.780;9.158;2022-08-01T23:07:32;18.57;;;17.87;;
727;SDS011;347;48.780;9.158;2022-08-01T23:10:03;18.53;;;17.83;;
727;SDS011;347;48.780;9.158;2022-08-01T23:12:30;18.70;;;18.00;;
727;SDS011;347;48.780;9.158;2022-08-01T23:14:56;18.47;;;17.73;;
727;SDS011;347;48.780;9.158;2022-08-01T23:17:24;18.50;;;17.70;;
727;SDS011;347;48.780;9.158;2022-08-01T23:19:51;17.73;;;17.13;;
727;SDS011;347;48.780;9.158;2022-08-01T23:22:18;18.20;;;17.60;;
727;SDS011;347;48.780;9.158;2022-08-01T23:24:45;18.50;;;17.80;;
727;SDS011;347;48.780;9.158;2022-08-01T23:27:11;18.00;;;17.40;;
727;SDS011;347;48.780;9.158;2022-08-01T23:29:49;18.83;;;18.13;;
727;SDS011;347;48.780;9.158;2022-08-01T23:32:15;18.50;;;17.80;;
727;SDS011;347;48.780;9.158;2022-08-01T23:34:42;17.90;;;17.30;;
727;SDS011;347;48.780;9.158;2022-08-01T23:37:09;17.90;;;17.20;;
727;SDS011;347;48.780;9.158;2022-08-01T23:39:35;18.20;;;17.50;;
727;SDS011;347;48.780;9.158;2022-08-01T23:42:01;18.50;;;17.70;;
727;SDS011;347;48.780;9.158;2022-08-01T23:44:26;18.60;;;17.80;;
727;SDS011;347;48.780;9.158;2022-08-01T23:46:52;19.10;;;18.40;;
727;SDS011;347;48.780;9.158;2022-08-01T23:49:17;18.90;;;17.80;;
727;SDS011;347;48.780;9.158;2022-08-01T23:51:43;19.37;;;18.53;;
727;SDS011;347;48.780;9.158;2022-08-01T23:54:09;18.33;;;17.60;;
727;SDS011;347;48.780;9.158;2022-08-01T23:56:35;18.47;;;17.77;;
727;SDS011;347;48.780;9.158;2022-08-01T23:59:01;19.23;;;18.43;;
